sensor_id;sensor_type;location;lat;lon;timestamp;P1;durP1;ratioP1;P2;durP2;ratioP2
41261;SDS011;29629;52.532;13.352;2023-08-06T00:00:58;114.47;;;79.32;;
41261;SDS011;29629;52.532;13.352;2023-08-06T00:03:25;118.55;;;80.70;;
41261;SDS011;29629;52.532;13.352;2023-08-06T00:05:52;109.30;;;78.30;;
41261;SDS011;29629;52.532;13.352;2023-08-06T00:08:19;105.57;;;77.57;;
41261;SDS011;29629;52.532;13.352;2023-08-06T00:10:47;117.00;;;80.40;;
41261;SDS011;29629;52.532;13.352;2023-08-06T00:13:16;118.50;;;80.07;;
41261;SDS011;29629;52.532;13.352;2023-08-06T00:15:43;114.65;;;79.45;;
41261;SDS011;29629;52.532;13.352;2023-08-06T00:18:10;115.05;;;79.30;;
41261;SDS011;29629;52.532;13.352;2023-08-06T00:20:38;113.05;;;78.80;;
41261;SDS011;29629;52.532;13.352;2023-08-06T00:23:06;110.85;;;77.72;;
41261;SDS011;29629;52.532;13.352;2023-08-06T00:25:33;109.95;;;77.82;;
41261;SDS011;29629;52.532;13.352;2023-08-06T00:28:00;108.65;;;77.65;;
41261;SDS011;29629;52.532;13.352;2023-08-06T00:30:28;109.20;;;77.07;;
41261;SDS011;29629;52.532;13.352;2023-08-06T00:32:55;112.05;;;78.75;;
41261;SDS011;29629;52.532;13.352;2023-08-06T00:35:22;118.72;;;80.65;;
41261;SDS011;29629;52.532;13.352;2023-08-06T00:37:49;118.03;;;80.60;;
41261;SDS011;29629;52.532;13.352;2023-08-06T00:40:16;102.18;;;76.07;;
41261;SDS011;29629;52.532;13.352;2023-08-06T00:42:46;118.95;;;80.40;;
41261;SDS011;29629;52.532;13.352;2023-08-06T00:45:13;114.93;;;78.93;;
41261;SDS011;29629;52.532;13.352;2023-08-06T00:47:41;116.60;;;79.10;;
41261;SDS011;29629;52.532;13.352;2023-08-06T00:50:08;109.13;;;76.65;;
41261;SDS011;29629;52.532;13.352;2023-08-06T00:52:35;109.03;;;77.40;;
41261;SDS011;29629;52.532;13.352;2023-08-06T00:55:03;107.70;;;76.93;;
41261;SDS011;29629;52.532;13.352;2023-08-06T00:57:31;111.97;;;77.78;;
41261;SDS011;29629;52.532;13.352;2023-08-06T00:59:58;116.22;;;79.00;;
41261;SDS011;29629;52.532;13.352;2023-08-06T01:02:25;108.13;;;77.22;;
41261;SDS011;29629;52.532;13.352;2023-08-06T01:04:54;119.50;;;80.03;;
41261;SDS011;29629;52.532;13.352;2023-08-06T01:07:24;114.95;;;78.78;;
41261;SDS011;29629;52.532;13.352;2023-08-06T01:10:10;108.00;;;76.43;;
41261;SDS011;29629;52.532;13.352;2023-08-06T01:12:51;119.03;;;79.60;;
41261;SDS011;29629;52.532;13.352;2023-08-06T01:15:30;112.30;;;77.38;;
41261;SDS011;29629;52.532;13.352;2023-08-06T01:18:03;114.53;;;78.40;;
41261;SDS011;29629;52.532;13.352;2023-08-06T01:20:32;106.22;;;76.55;;
41261;SDS011;29629;52.532;13.352;2023-08-06T01:22:59;110.32;;;77.78;;
41261;SDS011;29629;52.532;13.352;2023-08-06T01:25:27;110.28;;;77.40;;
41261;SDS011;29629;52.532;13.352;2023-08-06T01:28:01;116.53;;;78.40;;
41261;SDS011;29629;52.532;13.352;2023-08-06T01:30:31;102.60;;;75.20;;
41261;SDS011;29629;52.532;13.352;2023-08-06T01:33:03;107.25;;;76.65;;
41261;SDS011;29629;52.532;13.352;2023-08-06T01:35:32;117.78;;;79.82;;
41261;SDS011;29629;52.532;13.352;2023-08-06T01:38:01;113.68;;;78.25;;
41261;SDS011;29629;52.532;13.352;2023-08-06T01:40:29;118.50;;;78.38;;
41261;SDS011;29629;52.532;13.352;2023-08-06T01:42:57;118.10;;;79.53;;
41261;SDS011;29629;52.532;13.352;2023-08-06T01:45:24;111.57;;;78.03;;
41261;SDS011;29629;52.532;13.352;2023-08-06T01:47:50;119.53;;;80.32;;
41261;SDS011;29629;52.532;13.352;2023-08-06T01:50:18;107.55;;;76.80;;
41261;SDS011;29629;52.532;13.352;2023-08-06T01:52:46;111.50;;;77.30;;
41261;SDS011;29629;52.532;13.352;2023-08-06T01:55:13;112.88;;;77.70;;
41261;SDS011;29629;52.532;13.352;2023-08-06T01:57:40;107.93;;;76.57;;
41261;SDS011;29629;52.532;13.352;2023-08-06T02:00:07;112.90;;;77.93;;
41261;SDS011;29629;52.532;13.352;2023-08-06T02:02:35;107.40;;;75.97;;
41261;SDS011;29629;52.532;13.352;2023-08-06T02:05:02;112.72;;;78.15;;
41261;SDS011;29629;52.532;13.352;2023-08-06T02:07:29;109.32;;;76.22;;
41261;SDS011;29629;52.532;13.352;2023-08-06T02:09:58;118.20;;;78.95;;
41261;SDS011;29629;52.532;13.352;2023-08-06T02:12:24;114.70;;;78.47;;
41261;SDS011;29629;52.532;13.352;2023-08-06T02:14:51;116.60;;;78.65;;
41261;SDS011;29629;52.532;13.352;2023-08-06T02:17:18;108.38;;;77.15;;
41261;SDS011;29629;52.532;13.352;2023-08-06T02:19:45;112.85;;;77.57;;
41261;SDS011;29629;52.532;13.352;2023-08-06T02:22:12;114.30;;;78.20;;
41261;SDS011;29629;52.532;13.352;2023-08-06T02:24:39;110.72;;;77.38;;
41261;SDS011;29629;52.532;13.352;2023-08-06T02:27:08;111.20;;;77.03;;
41261;SDS011;29629;52.532;13.352;2023-08-06T02:29:35;113.15;;;78.25;;
41261;SDS011;29629;52.532;13.352;2023-08-06T02:32:01;113.07;;;77.45;;
41261;SDS011;29629;52.532;13.352;2023-08-06T02:34:28;113.93;;;77.80;;
41261;SDS011;29629;52.532;13.352;2023-08-06T02:36:55;107.45;;;76.43;;
41261;SDS011;29629;52.532;13.352;2023-08-06T02:39:22;111.07;;;76.78;;
41261;SDS011;29629;52.532;13.352;2023-08-06T02:41:49;113.35;;;77.47;;
41261;SDS011;29629;52.532;13.352;2023-08-06T02:44:17;101.30;;;74.30;;
41261;SDS011;29629;52.532;13.352;2023-08-06T02:46:44;113.03;;;78.05;;
41261;SDS011;29629;52.532;13.352;2023-08-06T02:49:11;109.60;;;76.32;;
41261;SDS011;29629;52.532;13.352;2023-08-06T02:51:38;114.80;;;78.50;;
41261;SDS011;29629;52.532;13.352;2023-08-06T02:54:05;112.45;;;77.28;;
41261;SDS011;29629;52.532;13.352;2023-08-06T02:56:32;112.88;;;77.82;;
41261;SDS011;29629;52.532;13.352;2023-08-06T02:58:59;133.75;;;82.85;;
41261;SDS011;29629;52.532;13.352;2023-08-06T03:01:27;113.55;;;77.57;;
41261;SDS011;29629;52.532;13.352;2023-08-06T03:03:54;115.97;;;77.70;;
41261;SDS011;29629;52.532;13.352;2023-08-06T03:06:21;107.78;;;76.28;;
41261;SDS011;29629;52.532;13.352;2023-08-06T03:08:48;122.13;;;79.65;;
41261;SDS011;29629;52.532;13.352;2023-08-06T03:11:15;104.40;;;74.90;;
41261;SDS011;29629;52.532;13.352;2023-08-06T03:13:42;115.57;;;78.15;;
41261;SDS011;29629;52.532;13.352;2023-08-06T03:16:09;112.03;;;77.78;;
41261;SDS011;29629;52.532;13.352;2023-08-06T03:18:37;109.57;;;76.25;;
41261;SDS011;29629;52.532;13.352;2023-08-06T03:21:04;108.22;;;76.07;;
41261;SDS011;29629;52.532;13.352;2023-08-06T03:23:31;116.15;;;78.38;;
41261;SDS011;29629;52.532;13.352;2023-08-06T03:26:00;116.32;;;78.65;;
41261;SDS011;29629;52.532;13.352;2023-08-06T03:28:27;115.93;;;78.38;;
41261;SDS011;29629;52.532;13.352;2023-08-06T03:31:00;117.70;;;79.07;;
41261;SDS011;29629;52.532;13.352;2023-08-06T03:33:28;118.70;;;78.85;;
41261;SDS011;29629;52.532;13.352;2023-08-06T03:35:56;119.80;;;79.20;;
41261;SDS011;29629;52.532;13.352;2023-08-06T03:38:23;108.78;;;77.03;;
41261;SDS011;29629;52.532;13.352;2023-08-06T03:40:50;124.28;;;81.50;;
41261;SDS011;29629;52.532;13.352;2023-08-06T03:43:17;120.18;;;79.50;;
41261;SDS011;29629;52.532;13.352;2023-08-06T03:45:44;129.43;;;83.03;;
41261;SDS011;29629;52.532;13.352;2023-08-06T03:48:11;122.32;;;79.55;;
41261;SDS011;29629;52.532;13.352;2023-08-06T03:50:38;120.15;;;79.53;;
41261;SDS011;29629;52.532;13.352;2023-08-06T03:53:06;119.65;;;79.85;;
41261;SDS011;29629;52.532;13.352;2023-08-06T03:55:33;120.93;;;79.68;;
41261;SDS011;29629;52.532;13.352;2023-08-06T03:58:00;128.70;;;81.72;;
41261;SDS011;29629;52.532;13.352;2023-08-06T04:00:27;114.50;;;77.75;;
41261;SDS011;29629;52.532;13.352;2023-08-06T04:02:54;119.15;;;78.65;;
41261;SDS011;29629;52.532;13.352;2023-08-06T04:05:20;114.47;;;77.72;;
41261;SDS011;29629;52.532;13.352;2023-08-06T04:07:47;122.55;;;79.55;;
41261;SDS011;29629;52.532;13.352;2023-08-06T04:10:16;109.32;;;75.72;;
41261;SDS011;29629;52.532;13.352;2023-08-06T04:12:43;119.05;;;78.55;;
41261;SDS011;29629;52.532;13.352;2023-08-06T04:15:09;109.30;;;75.88;;
41261;SDS011;29629;52.532;13.352;2023-08-06T04:17:36;113.07;;;77.05;;
41261;SDS011;29629;52.532;13.352;2023-08-06T04:20:04;106.80;;;74.93;;
41261;SDS011;29629;52.532;13.352;2023-08-06T04:22:32;106.18;;;74.63;;
41261;SDS011;29629;52.532;13.352;2023-08-06T04:24:58;112.38;;;76.70;;
41261;SDS011;29629;52.532;13.352;2023-08-06T04:27:27;111.05;;;76.10;;
41261;SDS011;29629;52.532;13.352;2023-08-06T04:29:54;117.72;;;77.88;;
41261;SDS011;29629;52.532;13.352;2023-08-06T04:32:20;102.75;;;73.18;;
41261;SDS011;29629;52.532;13.352;2023-08-06T04:34:47;120.35;;;78.28;;
41261;SDS011;29629;52.532;13.352;2023-08-06T04:37:14;110.00;;;76.25;;
41261;SDS011;29629;52.532;13.352;2023-08-06T04:39:41;120.13;;;78.63;;
41261;SDS011;29629;52.532;13.352;2023-08-06T04:42:08;114.47;;;77.22;;
41261;SDS011;29629;52.532;13.352;2023-08-06T04:44:36;108.57;;;75.68;;
41261;SDS011;29629;52.532;13.352;2023-08-06T04:47:03;113.03;;;77.28;;
41261;SDS011;29629;52.532;13.352;2023-08-06T04:49:30;113.25;;;77.22;;
41261;SDS011;29629;52.532;13.352;2023-08-06T04:51:57;111.07;;;76.95;;
41261;SDS011;29629;52.532;13.352;2023-08-06T04:54:24;113.63;;;77.25;;
41261;SDS011;29629;52.532;13.352;2023-08-06T04:56:51;116.53;;;77.45;;
41261;SDS011;29629;52.532;13.352;2023-08-06T04:59:18;115.20;;;77.43;;
41261;SDS011;29629;52.532;13.352;2023-08-06T05:01:46;112.72;;;76.65;;
41261;SDS011;29629;52.532;13.352;2023-08-06T05:04:13;116.40;;;77.90;;
41261;SDS011;29629;52.532;13.352;2023-08-06T05:06:40;119.95;;;78.10;;
41261;SDS011;29629;52.532;13.352;2023-08-06T05:09:07;121.18;;;79.03;;
41261;SDS011;29629;52.532;13.352;2023-08-06T05:11:34;113.53;;;76.60;;
41261;SDS011;29629;52.532;13.352;2023-08-06T05:14:01;107.53;;;74.93;;
41261;SDS011;29629;52.532;13.352;2023-08-06T05:16:28;117.22;;;78.40;;
41261;SDS011;29629;52.532;13.352;2023-08-06T05:18:56;145.30;;;84.57;;
41261;SDS011;29629;52.532;13.352;2023-08-06T05:21:23;113.50;;;76.57;;
41261;SDS011;29629;52.532;13.352;2023-08-06T05:23:50;126.43;;;80.35;;
41261;SDS011;29629;52.532;13.352;2023-08-06T05:26:17;116.28;;;77.22;;
41261;SDS011;29629;52.532;13.352;2023-08-06T05:28:44;116.43;;;77.28;;
41261;SDS011;29629;52.532;13.352;2023-08-06T05:31:11;108.68;;;76.20;;
41261;SDS011;29629;52.532;13.352;2023-08-06T05:33:38;111.30;;;75.82;;
41261;SDS011;29629;52.532;13.352;2023-08-06T05:36:07;110.68;;;76.28;;
41261;SDS011;29629;52.532;13.352;2023-08-06T05:38:33;111.90;;;76.85;;
41261;SDS011;29629;52.532;13.352;2023-08-06T05:41:00;111.57;;;76.30;;
41261;SDS011;29629;52.532;13.352;2023-08-06T05:43:27;109.55;;;74.93;;
41261;SDS011;29629;52.532;13.352;2023-08-06T05:45:55;114.75;;;79.82;;
41261;SDS011;29629;52.532;13.352;2023-08-06T05:48:23;107.03;;;78.32;;
41261;SDS011;29629;52.532;13.352;2023-08-06T05:50:50;108.68;;;78.57;;
41261;SDS011;29629;52.532;13.352;2023-08-06T05:53:19;105.82;;;78.22;;
41261;SDS011;29629;52.532;13.352;2023-08-06T05:55:45;110.10;;;79.72;;
41261;SDS011;29629;52.532;13.352;2023-08-06T05:58:13;110.15;;;80.20;;
41261;SDS011;29629;52.532;13.352;2023-08-06T06:00:40;109.88;;;79.43;;
41261;SDS011;29629;52.532;13.352;2023-08-06T06:03:07;112.82;;;80.85;;
41261;SDS011;29629;52.532;13.352;2023-08-06T06:05:34;108.13;;;78.55;;
41261;SDS011;29629;52.532;13.352;2023-08-06T06:08:03;108.03;;;79.60;;
41261;SDS011;29629;52.532;13.352;2023-08-06T06:10:31;110.55;;;79.63;;
41261;SDS011;29629;52.532;13.352;2023-08-06T06:12:58;104.13;;;78.40;;
41261;SDS011;29629;52.532;13.352;2023-08-06T06:15:25;113.30;;;79.72;;
41261;SDS011;29629;52.532;13.352;2023-08-06T06:17:52;112.70;;;79.85;;
41261;SDS011;29629;52.532;13.352;2023-08-06T06:20:19;111.80;;;80.03;;
41261;SDS011;29629;52.532;13.352;2023-08-06T06:22:47;111.68;;;82.32;;
41261;SDS011;29629;52.532;13.352;2023-08-06T06:25:15;111.97;;;81.40;;
41261;SDS011;29629;52.532;13.352;2023-08-06T06:27:43;114.07;;;81.28;;
41261;SDS011;29629;52.532;13.352;2023-08-06T06:30:10;111.20;;;80.90;;
41261;SDS011;29629;52.532;13.352;2023-08-06T06:32:38;109.18;;;78.68;;
41261;SDS011;29629;52.532;13.352;2023-08-06T06:35:06;108.57;;;78.97;;
41261;SDS011;29629;52.532;13.352;2023-08-06T06:37:34;112.32;;;79.35;;
41261;SDS011;29629;52.532;13.352;2023-08-06T06:40:01;110.30;;;80.32;;
41261;SDS011;29629;52.532;13.352;2023-08-06T06:42:28;123.03;;;82.70;;
41261;SDS011;29629;52.532;13.352;2023-08-06T06:44:57;111.38;;;80.18;;
41261;SDS011;29629;52.532;13.352;2023-08-06T06:47:24;116.63;;;81.57;;
41261;SDS011;29629;52.532;13.352;2023-08-06T06:49:51;120.03;;;83.07;;
41261;SDS011;29629;52.532;13.352;2023-08-06T06:52:18;107.68;;;78.78;;
41261;SDS011;29629;52.532;13.352;2023-08-06T06:54:45;112.88;;;80.63;;
41261;SDS011;29629;52.532;13.352;2023-08-06T06:57:12;108.85;;;80.97;;
41261;SDS011;29629;52.532;13.352;2023-08-06T06:59:39;114.60;;;83.00;;
41261;SDS011;29629;52.532;13.352;2023-08-06T07:02:07;117.25;;;82.68;;
41261;SDS011;29629;52.532;13.352;2023-08-06T07:04:34;106.18;;;78.60;;
41261;SDS011;29629;52.532;13.352;2023-08-06T07:07:01;114.93;;;82.78;;
41261;SDS011;29629;52.532;13.352;2023-08-06T07:09:28;113.53;;;82.00;;
41261;SDS011;29629;52.532;13.352;2023-08-06T07:11:55;113.38;;;81.80;;
41261;SDS011;29629;52.532;13.352;2023-08-06T07:14:22;114.82;;;81.57;;
41261;SDS011;29629;52.532;13.352;2023-08-06T07:16:50;118.32;;;82.72;;
41261;SDS011;29629;52.532;13.352;2023-08-06T07:19:19;116.63;;;82.47;;
41261;SDS011;29629;52.532;13.352;2023-08-06T07:21:46;118.65;;;83.55;;
41261;SDS011;29629;52.532;13.352;2023-08-06T07:24:13;113.47;;;82.93;;
41261;SDS011;29629;52.532;13.352;2023-08-06T07:26:40;110.78;;;82.45;;
41261;SDS011;29629;52.532;13.352;2023-08-06T07:29:07;122.60;;;84.65;;
41261;SDS011;29629;52.532;13.352;2023-08-06T07:31:34;108.38;;;81.35;;
41261;SDS011;29629;52.532;13.352;2023-08-06T07:34:01;119.22;;;84.10;;
41261;SDS011;29629;52.532;13.352;2023-08-06T07:36:29;110.88;;;81.88;;
41261;SDS011;29629;52.532;13.352;2023-08-06T07:38:57;139.63;;;87.57;;
41261;SDS011;29629;52.532;13.352;2023-08-06T07:41:24;111.15;;;81.78;;
41261;SDS011;29629;52.532;13.352;2023-08-06T07:43:51;116.22;;;82.93;;
41261;SDS011;29629;52.532;13.352;2023-08-06T07:46:18;117.40;;;84.28;;
41261;SDS011;29629;52.532;13.352;2023-08-06T07:48:45;123.75;;;85.22;;
41261;SDS011;29629;52.532;13.352;2023-08-06T07:51:12;109.93;;;80.00;;
41261;SDS011;29629;52.532;13.352;2023-08-06T07:53:40;120.05;;;83.22;;
41261;SDS011;29629;52.532;13.352;2023-08-06T07:56:07;116.00;;;83.18;;
41261;SDS011;29629;52.532;13.352;2023-08-06T07:58:34;119.20;;;83.30;;
41261;SDS011;29629;52.532;13.352;2023-08-06T08:01:01;111.80;;;81.43;;
41261;SDS011;29629;52.532;13.352;2023-08-06T08:03:28;117.32;;;83.00;;
41261;SDS011;29629;52.532;13.352;2023-08-06T08:05:55;113.07;;;81.90;;
41261;SDS011;29629;52.532;13.352;2023-08-06T08:08:25;111.85;;;82.13;;
41261;SDS011;29629;52.532;13.352;2023-08-06T08:10:53;118.82;;;83.65;;
41261;SDS011;29629;52.532;13.352;2023-08-06T08:13:21;110.75;;;81.50;;
41261;SDS011;29629;52.532;13.352;2023-08-06T08:15:48;110.25;;;80.63;;
41261;SDS011;29629;52.532;13.352;2023-08-06T08:18:15;111.88;;;80.93;;
41261;SDS011;29629;52.532;13.352;2023-08-06T08:20:42;108.65;;;81.88;;
41261;SDS011;29629;52.532;13.352;2023-08-06T08:23:09;113.57;;;83.13;;
41261;SDS011;29629;52.532;13.352;2023-08-06T08:25:35;109.53;;;82.78;;
41261;SDS011;29629;52.532;13.352;2023-08-06T08:28:04;112.13;;;83.47;;
41261;SDS011;29629;52.532;13.352;2023-08-06T08:30:31;114.63;;;82.43;;
41261;SDS011;29629;52.532;13.352;2023-08-06T08:32:58;107.15;;;81.03;;
41261;SDS011;29629;52.532;13.352;2023-08-06T08:35:25;110.95;;;83.07;;
41261;SDS011;29629;52.532;13.352;2023-08-06T08:37:52;115.25;;;83.28;;
41261;SDS011;29629;52.532;13.352;2023-08-06T08:40:19;116.20;;;83.55;;
41261;SDS011;29629;52.532;13.352;2023-08-06T08:42:49;113.10;;;83.53;;
41261;SDS011;29629;52.532;13.352;2023-08-06T08:45:18;121.85;;;86.53;;
41261;SDS011;29629;52.532;13.352;2023-08-06T08:47:48;113.93;;;84.28;;
41261;SDS011;29629;52.532;13.352;2023-08-06T08:50:15;105.32;;;80.97;;
41261;SDS011;29629;52.532;13.352;2023-08-06T08:52:44;113.70;;;83.43;;
41261;SDS011;29629;52.532;13.352;2023-08-06T08:55:14;114.18;;;84.38;;
41261;SDS011;29629;52.532;13.352;2023-08-06T08:57:41;111.43;;;83.50;;
41261;SDS011;29629;52.532;13.352;2023-08-06T09:00:09;117.70;;;86.53;;
41261;SDS011;29629;52.532;13.352;2023-08-06T09:02:40;120.68;;;86.40;;
41261;SDS011;29629;52.532;13.352;2023-08-06T09:05:09;107.82;;;83.20;;
41261;SDS011;29629;52.532;13.352;2023-08-06T09:07:38;121.68;;;86.75;;
41261;SDS011;29629;52.532;13.352;2023-08-06T09:10:09;122.72;;;87.75;;
41261;SDS011;29629;52.532;13.352;2023-08-06T09:12:38;116.28;;;86.97;;
41261;SDS011;29629;52.532;13.352;2023-08-06T09:15:06;115.68;;;84.88;;
41261;SDS011;29629;52.532;13.352;2023-08-06T09:17:33;121.00;;;86.50;;
41261;SDS011;29629;52.532;13.352;2023-08-06T09:20:10;118.57;;;85.57;;
41261;SDS011;29629;52.532;13.352;2023-08-06T09:22:38;115.95;;;86.05;;
41261;SDS011;29629;52.532;13.352;2023-08-06T09:25:06;113.50;;;83.47;;
41261;SDS011;29629;52.532;13.352;2023-08-06T09:27:35;110.20;;;83.80;;
41261;SDS011;29629;52.532;13.352;2023-08-06T09:30:03;117.10;;;85.70;;
41261;SDS011;29629;52.532;13.352;2023-08-06T09:32:41;109.70;;;83.30;;
41261;SDS011;29629;52.532;13.352;2023-08-06T09:35:16;121.25;;;87.60;;
41261;SDS011;29629;52.532;13.352;2023-08-06T09:37:44;118.88;;;86.68;;
41261;SDS011;29629;52.532;13.352;2023-08-06T09:40:26;109.35;;;83.57;;
41261;SDS011;29629;52.532;13.352;2023-08-06T09:42:54;117.00;;;84.65;;
41261;SDS011;29629;52.532;13.352;2023-08-06T09:45:22;118.22;;;85.35;;
41261;SDS011;29629;52.532;13.352;2023-08-06T09:47:50;131.68;;;90.53;;
41261;SDS011;29629;52.532;13.352;2023-08-06T09:50:23;104.68;;;82.15;;
41261;SDS011;29629;52.532;13.352;2023-08-06T09:52:55;115.45;;;85.72;;
41261;SDS011;29629;52.532;13.352;2023-08-06T09:55:23;106.05;;;83.55;;
41261;SDS011;29629;52.532;13.352;2023-08-06T09:57:51;122.82;;;87.57;;
41261;SDS011;29629;52.532;13.352;2023-08-06T10:00:19;119.22;;;84.60;;
41261;SDS011;29629;52.532;13.352;2023-08-06T10:02:47;114.93;;;84.53;;
41261;SDS011;29629;52.532;13.352;2023-08-06T10:05:16;115.72;;;86.72;;
41261;SDS011;29629;52.532;13.352;2023-08-06T10:07:45;115.53;;;85.18;;
41261;SDS011;29629;52.532;13.352;2023-08-06T10:10:16;114.57;;;84.63;;
41261;SDS011;29629;52.532;13.352;2023-08-06T10:12:44;111.25;;;82.07;;
41261;SDS011;29629;52.532;13.352;2023-08-06T10:15:15;115.78;;;83.90;;
41261;SDS011;29629;52.532;13.352;2023-08-06T10:17:45;118.03;;;85.32;;
41261;SDS011;29629;52.532;13.352;2023-08-06T10:20:16;109.80;;;81.93;;
41261;SDS011;29629;52.532;13.352;2023-08-06T10:22:43;101.28;;;79.90;;
41261;SDS011;29629;52.532;13.352;2023-08-06T10:25:16;119.47;;;85.45;;
41261;SDS011;29629;52.532;13.352;2023-08-06T10:27:52;116.80;;;84.65;;
41261;SDS011;29629;52.532;13.352;2023-08-06T10:30:23;112.63;;;82.72;;
41261;SDS011;29629;52.532;13.352;2023-08-06T10:32:51;114.80;;;84.38;;
41261;SDS011;29629;52.532;13.352;2023-08-06T10:35:29;116.50;;;85.32;;
41261;SDS011;29629;52.532;13.352;2023-08-06T10:37:59;114.82;;;81.93;;
41261;SDS011;29629;52.532;13.352;2023-08-06T10:40:30;112.55;;;83.55;;
41261;SDS011;29629;52.532;13.352;2023-08-06T10:43:00;118.05;;;85.93;;
41261;SDS011;29629;52.532;13.352;2023-08-06T10:45:28;121.55;;;87.25;;
41261;SDS011;29629;52.532;13.352;2023-08-06T10:47:55;114.72;;;83.90;;
41261;SDS011;29629;52.532;13.352;2023-08-06T10:50:23;108.85;;;82.65;;
41261;SDS011;29629;52.532;13.352;2023-08-06T10:52:51;119.75;;;86.32;;
41261;SDS011;29629;52.532;13.352;2023-08-06T10:55:23;112.60;;;81.82;;
41261;SDS011;29629;52.532;13.352;2023-08-06T10:57:51;125.65;;;88.53;;
41261;SDS011;29629;52.532;13.352;2023-08-06T11:00:20;112.57;;;82.60;;
41261;SDS011;29629;52.532;13.352;2023-08-06T11:02:52;116.55;;;85.68;;
41261;SDS011;29629;52.532;13.352;2023-08-06T11:05:19;120.10;;;85.82;;
41261;SDS011;29629;52.532;13.352;2023-08-06T11:07:47;123.03;;;87.22;;
41261;SDS011;29629;52.532;13.352;2023-08-06T11:10:16;110.80;;;82.95;;
41261;SDS011;29629;52.532;13.352;2023-08-06T11:12:44;116.03;;;84.93;;
41261;SDS011;29629;52.532;13.352;2023-08-06T11:15:11;118.95;;;85.20;;
41261;SDS011;29629;52.532;13.352;2023-08-06T11:17:39;127.97;;;89.20;;
41261;SDS011;29629;52.532;13.352;2023-08-06T11:20:07;119.93;;;87.50;;
41261;SDS011;29629;52.532;13.352;2023-08-06T11:22:35;113.50;;;85.28;;
41261;SDS011;29629;52.532;13.352;2023-08-06T11:25:03;113.90;;;84.47;;
41261;SDS011;29629;52.532;13.352;2023-08-06T11:27:31;111.13;;;83.43;;
41261;SDS011;29629;52.532;13.352;2023-08-06T11:30:00;107.05;;;82.20;;
41261;SDS011;29629;52.532;13.352;2023-08-06T11:32:27;107.07;;;81.72;;
41261;SDS011;29629;52.532;13.352;2023-08-06T11:34:54;102.35;;;80.68;;
41261;SDS011;29629;52.532;13.352;2023-08-06T11:37:22;116.93;;;85.22;;
41261;SDS011;29629;52.532;13.352;2023-08-06T11:39:50;110.03;;;83.25;;
41261;SDS011;29629;52.532;13.352;2023-08-06T11:42:18;114.93;;;84.70;;
41261;SDS011;29629;52.532;13.352;2023-08-06T11:44:44;109.72;;;84.03;;
41261;SDS011;29629;52.532;13.352;2023-08-06T11:47:14;106.82;;;83.18;;
41261;SDS011;29629;52.532;13.352;2023-08-06T11:49:42;117.63;;;85.20;;
41261;SDS011;29629;52.532;13.352;2023-08-06T11:52:12;108.07;;;82.72;;
41261;SDS011;29629;52.532;13.352;2023-08-06T11:54:41;105.10;;;83.38;;
41261;SDS011;29629;52.532;13.352;2023-08-06T11:57:08;109.78;;;83.35;;
41261;SDS011;29629;52.532;13.352;2023-08-06T11:59:37;112.45;;;83.95;;
41261;SDS011;29629;52.532;13.352;2023-08-06T12:02:04;111.25;;;84.32;;
41261;SDS011;29629;52.532;13.352;2023-08-06T12:07:36;111.38;;;84.40;;
41261;SDS011;29629;52.532;13.352;2023-08-06T12:10:04;118.20;;;86.97;;
41261;SDS011;29629;52.532;13.352;2023-08-06T12:12:32;104.55;;;82.03;;
41261;SDS011;29629;52.532;13.352;2023-08-06T12:15:00;115.07;;;87.20;;
41261;SDS011;29629;52.532;13.352;2023-08-06T12:17:27;112.65;;;85.25;;
41261;SDS011;29629;52.532;13.352;2023-08-06T12:19:56;114.18;;;83.75;;
41261;SDS011;29629;52.532;13.352;2023-08-06T12:22:23;114.25;;;86.65;;
41261;SDS011;29629;52.532;13.352;2023-08-06T12:24:51;114.35;;;85.82;;
41261;SDS011;29629;52.532;13.352;2023-08-06T12:27:18;119.07;;;88.40;;
41261;SDS011;29629;52.532;13.352;2023-08-06T12:29:46;120.53;;;87.40;;
41261;SDS011;29629;52.532;13.352;2023-08-06T12:32:14;117.65;;;86.57;;
41261;SDS011;29629;52.532;13.352;2023-08-06T12:34:42;114.63;;;84.80;;
41261;SDS011;29629;52.532;13.352;2023-08-06T12:37:09;110.75;;;85.03;;
41261;SDS011;29629;52.532;13.352;2023-08-06T12:39:36;118.85;;;86.80;;
41261;SDS011;29629;52.532;13.352;2023-08-06T12:42:05;116.85;;;86.28;;
41261;SDS011;29629;52.532;13.352;2023-08-06T12:44:32;111.25;;;84.20;;
41261;SDS011;29629;52.532;13.352;2023-08-06T12:46:59;116.15;;;85.45;;
41261;SDS011;29629;52.532;13.352;2023-08-06T12:49:26;110.32;;;83.85;;
41261;SDS011;29629;52.532;13.352;2023-08-06T12:51:53;115.25;;;87.35;;
41261;SDS011;29629;52.532;13.352;2023-08-06T12:54:21;111.85;;;84.20;;
41261;SDS011;29629;52.532;13.352;2023-08-06T12:56:49;124.13;;;88.53;;
41261;SDS011;29629;52.532;13.352;2023-08-06T12:59:18;117.53;;;87.53;;
41261;SDS011;29629;52.532;13.352;2023-08-06T13:01:45;114.28;;;84.22;;
41261;SDS011;29629;52.532;13.352;2023-08-06T13:04:13;115.82;;;85.38;;
41261;SDS011;29629;52.532;13.352;2023-08-06T13:06:40;112.85;;;84.40;;
41261;SDS011;29629;52.532;13.352;2023-08-06T13:09:07;127.35;;;87.95;;
41261;SDS011;29629;52.532;13.352;2023-08-06T13:11:35;119.05;;;87.45;;
41261;SDS011;29629;52.532;13.352;2023-08-06T13:14:06;117.60;;;85.70;;
41261;SDS011;29629;52.532;13.352;2023-08-06T13:16:36;114.20;;;84.30;;
41261;SDS011;29629;52.532;13.352;2023-08-06T13:19:04;134.55;;;90.88;;
41261;SDS011;29629;52.532;13.352;2023-08-06T13:21:32;107.22;;;82.20;;
41261;SDS011;29629;52.532;13.352;2023-08-06T13:24:01;115.32;;;83.78;;
41261;SDS011;29629;52.532;13.352;2023-08-06T13:26:28;104.57;;;81.70;;
41261;SDS011;29629;52.532;13.352;2023-08-06T13:28:56;148.07;;;92.20;;
41261;SDS011;29629;52.532;13.352;2023-08-06T13:31:24;107.78;;;82.88;;
41261;SDS011;29629;52.532;13.352;2023-08-06T13:33:53;115.53;;;84.47;;
41261;SDS011;29629;52.532;13.352;2023-08-06T13:36:20;121.97;;;86.75;;
41261;SDS011;29629;52.532;13.352;2023-08-06T13:38:48;118.75;;;86.53;;
41261;SDS011;29629;52.532;13.352;2023-08-06T13:41:15;106.80;;;83.75;;
41261;SDS011;29629;52.532;13.352;2023-08-06T13:43:42;111.03;;;84.05;;
41261;SDS011;29629;52.532;13.352;2023-08-06T13:46:10;102.05;;;82.22;;
41261;SDS011;29629;52.532;13.352;2023-08-06T13:48:41;123.10;;;86.68;;
41261;SDS011;29629;52.532;13.352;2023-08-06T13:51:09;107.05;;;82.05;;
41261;SDS011;29629;52.532;13.352;2023-08-06T13:53:37;101.20;;;81.25;;
41261;SDS011;29629;52.532;13.352;2023-08-06T13:56:04;108.50;;;82.32;;
41261;SDS011;29629;52.532;13.352;2023-08-06T13:58:31;102.43;;;82.13;;
41261;SDS011;29629;52.532;13.352;2023-08-06T14:00:59;109.28;;;83.15;;
41261;SDS011;29629;52.532;13.352;2023-08-06T14:03:26;111.03;;;85.53;;